createdAt,value
2022-11-08T00:01:29.788Z,100829.06
2022-11-08T00:04:27.091Z,100833.63
2022-11-08T00:07:42.954Z,100834.25
2022-11-08T00:10:58.821Z,100829.66
2022-11-08T00:14:03.062Z,100842.56
2022-11-08T00:17:00.056Z,100827.84
2022-11-08T00:19:57.512Z,100830.09
2022-11-08T00:22:54.441Z,100812.41
2022-11-08T00:25:54.661Z,100817.00
2022-11-08T00:28:52.245Z,100819.84
2022-11-08T00:31:49.138Z,100830.09
2022-11-08T00:34:46.840Z,100820.38
2022-11-08T00:37:44.220Z,100813.69
2022-11-08T00:40:41.469Z,100820.66
2022-11-08T00:43:38.713Z,100820.22
2022-11-08T00:46:37.701Z,100818.66
2022-11-08T00:49:35.661Z,100820.94
2022-11-08T00:52:33.627Z,100809.44
2022-11-08T00:55:29.955Z,100806.63
2022-11-08T00:58:28.317Z,100805.81
2022-11-08T01:01:26.586Z,100806.56
2022-11-08T01:04:24.096Z,100802.16
2022-11-08T01:07:20.951Z,100815.97
2022-11-08T01:10:18.115Z,100813.06
2022-11-08T01:13:15.159Z,100814.38
2022-11-08T01:16:14.730Z,100810.44
2022-11-08T01:19:12.323Z,100810.50
2022-11-08T01:22:09.823Z,100814.41
2022-11-08T01:25:07.526Z,100808.78
2022-11-08T01:28:04.678Z,100811.19
2022-11-08T01:31:13.008Z,100801.34
2022-11-08T01:34:10.519Z,100809.38
2022-11-08T01:37:07.499Z,100803.97
2022-11-08T01:40:05.354Z,100802.63
2022-11-08T01:43:25.221Z,100795.59
2022-11-08T01:46:32.036Z,100795.88
2022-11-08T01:49:39.968Z,100792.75
2022-11-08T01:52:51.730Z,100791.59
2022-11-08T01:55:49.030Z,100780.00
2022-11-08T01:58:46.190Z,100781.81
2022-11-08T02:01:44.150Z,100799.06
2022-11-08T02:04:41.639Z,100797.53
2022-11-08T02:07:38.385Z,100792.56
2022-11-08T02:10:39.351Z,100797.53
2022-11-08T02:13:37.536Z,100788.84
2022-11-08T02:16:34.228Z,100785.03
2022-11-08T02:19:46.987Z,100788.31
2022-11-08T02:23:10.297Z,100774.28
2022-11-08T02:26:07.499Z,100769.63
2022-11-08T02:29:25.962Z,100775.19
2022-11-08T02:32:23.620Z,100765.59
2022-11-08T02:35:20.174Z,100772.09
2022-11-08T02:38:18.624Z,100775.38
2022-11-08T02:41:16.289Z,100772.19
2022-11-08T02:44:13.354Z,100778.28
2022-11-08T02:47:10.564Z,100763.22
2022-11-08T02:50:07.473Z,100763.78
2022-11-08T02:53:04.676Z,100760.31
2022-11-08T02:56:02.669Z,100752.38
2022-11-08T02:58:59.441Z,100759.66
2022-11-08T03:01:56.393Z,100762.13
2022-11-08T03:04:53.063Z,100754.09
2022-11-08T03:07:50.297Z,100759.38
2022-11-08T03:10:47.140Z,100753.81
2022-11-08T03:13:44.120Z,100751.28
2022-11-08T03:16:41.376Z,100748.16
2022-11-08T03:19:38.251Z,100744.97
2022-11-08T03:22:35.393Z,100744.66
2022-11-08T03:25:32.440Z,100734.16
2022-11-08T03:28:29.578Z,100742.06
2022-11-08T03:31:26.666Z,100732.25
2022-11-08T03:34:23.441Z,100726.44
2022-11-08T03:37:20.508Z,100722.41
2022-11-08T03:40:18.371Z,100737.47
2022-11-08T03:43:15.573Z,100734.81
2022-11-08T03:46:12.606Z,100736.91
2022-11-08T03:49:09.605Z,100733.56
2022-11-08T03:52:06.532Z,100736.81
2022-11-08T03:55:03.434Z,100734.06
2022-11-08T03:58:00.382Z,100740.91
2022-11-08T04:00:58.293Z,100734.34
2022-11-08T04:03:55.867Z,100726.69
2022-11-08T04:06:53.510Z,100730.09
2022-11-08T04:09:50.271Z,100733.88
2022-11-08T04:13:05.738Z,100723.53
2022-11-08T04:16:02.347Z,100710.19
2022-11-08T04:19:18.138Z,100713.22
2022-11-08T04:22:15.416Z,100708.31
2022-11-08T04:25:12.335Z,100711.97
2022-11-08T04:28:09.918Z,100710.25
2022-11-08T04:31:09.873Z,100710.06
2022-11-08T04:34:07.720Z,100704.41
2022-11-08T04:37:04.852Z,100695.66
2022-11-08T04:40:02.707Z,100688.91
2022-11-08T04:43:00.882Z,100685.59
2022-11-08T04:46:00.130Z,100679.84
2022-11-08T04:48:58.645Z,100683.09
2022-11-08T04:51:55.383Z,100680.72
2022-11-08T04:54:52.604Z,100679.88
2022-11-08T04:57:49.780Z,100672.97
2022-11-08T05:00:46.432Z,100674.69
2022-11-08T05:03:43.368Z,100662.53
2022-11-08T05:06:40.304Z,100659.78
2022-11-08T05:09:37.701Z,100645.63
2022-11-08T05:12:34.622Z,100642.72
2022-11-08T05:15:31.389Z,100647.50
2022-11-08T05:18:29.269Z,100640.09
2022-11-08T05:21:45.459Z,100638.63
2022-11-08T05:24:42.185Z,100636.19
2022-11-08T05:27:39.311Z,100630.91
2022-11-08T05:30:36.061Z,100628.56
2022-11-08T05:33:33.493Z,100620.78
2022-11-08T05:36:30.472Z,100623.31
2022-11-08T05:39:31.922Z,100619.03
2022-11-08T05:42:29.661Z,100624.69
2022-11-08T05:45:26.379Z,100615.63
2022-11-08T05:48:23.307Z,100621.28
2022-11-08T05:51:20.673Z,100615.34
2022-11-08T05:54:17.358Z,100612.34
2022-11-08T05:57:16.062Z,100608.25
2022-11-08T06:00:14.683Z,100608.09
2022-11-08T06:03:11.405Z,100606.34
2022-11-08T06:06:10.320Z,100608.97
2022-11-08T06:09:07.353Z,100602.31
2022-11-08T06:12:05.060Z,100603.09
2022-11-08T06:15:02.758Z,100599.69
2022-11-08T06:18:03.085Z,100597.66
2022-11-08T06:21:01.193Z,100588.00
2022-11-08T06:23:58.676Z,100581.50
2022-11-08T06:26:55.621Z,100582.06
2022-11-08T06:29:52.400Z,100576.75
2022-11-08T06:32:49.198Z,100587.84
2022-11-08T06:35:47.102Z,100597.06
2022-11-08T06:38:44.269Z,100584.00
2022-11-08T06:41:41.723Z,100586.41
2022-11-08T06:44:38.304Z,100580.75
2022-11-08T06:47:35.600Z,100578.34
2022-11-08T06:50:32.857Z,100578.91
2022-11-08T06:53:29.642Z,100567.41
2022-11-08T06:56:26.461Z,100572.00
2022-11-08T06:59:23.488Z,100570.25
2022-11-08T07:02:20.641Z,100549.66
2022-11-08T07:05:17.602Z,100566.69
2022-11-08T07:08:15.311Z,100555.97
2022-11-08T07:11:13.327Z,100552.84
2022-11-08T07:14:10.642Z,100553.97
2022-11-08T07:17:07.742Z,100558.66
2022-11-08T07:20:05.151Z,100552.72
2022-11-08T07:23:02.221Z,100551.00
2022-11-08T07:26:05.830Z,100553.91
2022-11-08T07:29:02.603Z,100546.66
2022-11-08T07:31:59.399Z,100537.81
2022-11-08T07:34:56.582Z,100532.22
2022-11-08T07:37:53.593Z,100533.50
2022-11-08T07:40:51.598Z,100530.22
2022-11-08T07:43:49.238Z,100535.72
2022-11-08T07:46:47.807Z,100525.91
2022-11-08T07:49:44.630Z,100541.84
2022-11-08T07:52:41.728Z,100539.88
2022-11-08T07:55:39.242Z,100527.16
2022-11-08T07:58:36.415Z,100534.22
2022-11-08T08:01:33.752Z,100528.94
2022-11-08T08:04:31.090Z,100537.50
2022-11-08T08:07:28.615Z,100532.66
2022-11-08T08:10:25.915Z,100530.13
2022-11-08T08:13:22.941Z,100535.84
2022-11-08T08:16:19.608Z,100534.06
2022-11-08T08:19:16.722Z,100523.19
2022-11-08T08:22:13.409Z,100527.75
2022-11-08T08:25:10.378Z,100519.94
2022-11-08T08:28:07.610Z,100517.59
2022-11-08T08:31:06.876Z,100524.34
2022-11-08T08:34:05.218Z,100511.59
2022-11-08T08:37:02.493Z,100521.44
2022-11-08T08:39:59.517Z,100512.75
2022-11-08T08:42:58.465Z,100512.59
2022-11-08T08:46:00.254Z,100504.97
2022-11-08T08:48:57.268Z,100506.34
2022-11-08T08:51:54.597Z,100514.19
2022-11-08T08:54:51.555Z,100511.91
2022-11-08T08:57:48.581Z,100503.59
2022-11-08T09:04:02.289Z,100496.63
2022-11-08T09:06:59.692Z,100488.88
2022-11-08T09:09:56.554Z,100488.75
2022-11-08T09:12:53.505Z,100482.69
2022-11-08T09:15:50.625Z,100471.41
2022-11-08T09:18:47.767Z,100472.25
2022-11-08T09:21:44.759Z,100477.22
2022-11-08T09:24:41.513Z,100481.47
2022-11-08T09:27:38.846Z,100463.25
2022-11-08T09:30:36.107Z,100462.69
2022-11-08T09:33:33.757Z,100464.88
2022-11-08T09:36:30.975Z,100444.38
2022-11-08T09:39:27.749Z,100445.03
2022-11-08T09:42:41.948Z,100445.63
2022-11-08T09:45:49.325Z,100447.81
2022-11-08T09:48:46.822Z,100442.16
2022-11-08T09:51:43.729Z,100429.22
2022-11-08T09:54:43.038Z,100424.25
2022-11-08T09:58:08.422Z,100427.63
2022-11-08T10:01:05.517Z,100447.13
2022-11-08T10:04:07.183Z,100438.59
2022-11-08T10:07:11.871Z,100432.44
2022-11-08T10:10:17.847Z,100435.69
2022-11-08T10:13:41.830Z,100434.56
2022-11-08T10:16:55.096Z,100424.88
2022-11-08T10:20:15.786Z,100438.03
2022-11-08T10:23:15.730Z,100422.13
2022-11-08T10:26:16.713Z,100417.63
2022-11-08T10:29:21.779Z,100420.84
2022-11-08T10:32:21.990Z,100424.22
2022-11-08T10:35:25.465Z,100410.53
2022-11-08T10:38:30.747Z,100404.00
2022-11-08T10:41:33.493Z,100419.94
2022-11-08T10:44:30.446Z,100422.03
2022-11-08T10:47:33.454Z,100407.78
2022-11-08T10:51:00.053Z,100416.66
2022-11-08T10:53:56.890Z,100403.13
2022-11-08T10:56:54.893Z,100396.22
2022-11-08T10:59:52.477Z,100393.03
2022-11-08T11:02:51.182Z,100378.28
2022-11-08T11:06:24.771Z,100379.22
2022-11-08T11:09:22.574Z,100377.09
2022-11-08T11:12:20.038Z,100384.50
2022-11-08T11:15:18.183Z,100384.97
2022-11-08T11:18:47.968Z,100379.31
2022-11-08T11:21:45.119Z,100362.56
2022-11-08T11:24:50.518Z,100367.03
2022-11-08T11:27:54.428Z,100363.41
2022-11-08T11:31:03.584Z,100364.19
2022-11-08T11:34:18.222Z,100358.91
2022-11-08T11:37:20.600Z,100373.94
2022-11-08T11:40:32.826Z,100363.38
2022-11-08T11:43:31.467Z,100365.81
2022-11-08T11:46:51.221Z,100346.31
2022-11-08T11:49:48.287Z,100345.47
2022-11-08T11:52:44.927Z,100347.50
2022-11-08T11:55:53.718Z,100351.19
2022-11-08T11:59:03.194Z,100345.50
2022-11-08T12:02:02.784Z,100350.78
2022-11-08T12:05:16.616Z,100337.34
2022-11-08T12:08:35.684Z,100341.03
2022-11-08T12:11:52.081Z,100349.97
2022-11-08T12:15:00.577Z,100339.81
2022-11-08T12:18:10.883Z,100350.81
2022-11-08T12:21:17.386Z,100354.88
2022-11-08T12:24:30.491Z,100356.91
2022-11-08T12:27:51.712Z,100358.53
2022-11-08T12:30:54.665Z,100352.44
2022-11-08T12:34:16.658Z,100362.56
2022-11-08T12:37:47.355Z,100353.63
2022-11-08T12:41:06.385Z,100351.19
2022-11-08T12:44:30.687Z,100341.44
2022-11-08T12:47:34.722Z,100351.59
2022-11-08T12:50:50.411Z,100349.16
2022-11-08T12:54:12.359Z,100360.97
2022-11-08T12:57:15.008Z,100351.63
2022-11-08T13:00:17.494Z,100355.31
2022-11-08T13:03:25.873Z,100348.34
2022-11-08T13:07:02.299Z,100336.94
2022-11-08T13:10:01.984Z,100337.34
2022-11-08T13:13:23.402Z,100332.06
2022-11-08T13:16:22.063Z,100332.88
2022-11-08T13:19:30.018Z,100332.88
2022-11-08T13:22:30.149Z,100342.22
2022-11-08T13:25:35.920Z,100340.63
2022-11-08T13:28:42.917Z,100328.38
2022-11-08T13:31:49.325Z,100327.97
2022-11-08T13:34:55.035Z,100321.50
2022-11-08T13:37:56.578Z,100315.38
2022-11-08T13:41:12.865Z,100303.97
2022-11-08T13:44:48.854Z,100283.22
2022-11-08T13:47:48.061Z,100280.78
2022-11-08T13:50:46.366Z,100284.84
2022-11-08T13:53:49.738Z,100294.63
2022-11-08T13:56:50.631Z,100305.59
2022-11-08T13:59:54.129Z,100295.03
2022-11-08T14:02:51.189Z,100294.22
2022-11-08T14:05:47.979Z,100288.53
2022-11-08T14:08:57.135Z,100310.50
2022-11-08T14:11:56.920Z,100307.66
2022-11-08T14:15:18.402Z,100300.72
2022-11-08T14:18:29.238Z,100276.31
2022-11-08T14:21:26.029Z,100279.56
2022-11-08T14:24:29.350Z,100276.72
2022-11-08T14:27:39.998Z,100288.94
2022-11-08T14:30:36.943Z,100286.47
2022-11-08T14:33:41.658Z,100299.50
2022-11-08T14:36:39.201Z,100300.31
2022-11-08T14:39:36.767Z,100302.31
2022-11-08T14:42:33.941Z,100321.88
2022-11-08T14:45:31.140Z,100300.72
2022-11-08T14:48:29.128Z,100292.97
2022-11-08T14:51:26.134Z,100308.00
2022-11-08T14:54:27.110Z,100297.84
2022-11-08T14:57:40.474Z,100297.44
2022-11-08T15:00:38.409Z,100293.78
2022-11-08T15:03:34.985Z,100285.59
2022-11-08T15:06:36.816Z,100282.72
2022-11-08T15:09:37.461Z,100292.50
2022-11-08T15:12:39.158Z,100290.50
2022-11-08T15:15:35.885Z,100281.94
2022-11-08T15:18:37.681Z,100290.47
2022-11-08T15:21:34.894Z,100283.53
2022-11-08T15:24:39.436Z,100265.66
2022-11-08T15:27:36.293Z,100265.22
2022-11-08T15:30:36.671Z,100266.03
2022-11-08T15:33:35.971Z,100275.00
2022-11-08T15:36:35.202Z,100275.41
2022-11-08T15:39:41.331Z,100277.41
2022-11-08T15:42:44.611Z,100272.09
2022-11-08T15:45:52.709Z,100272.88
2022-11-08T15:48:58.535Z,100278.19
2022-11-08T15:51:58.548Z,100289.63
2022-11-08T15:54:56.231Z,100283.91
2022-11-08T15:57:53.254Z,100273.69
2022-11-08T16:00:49.871Z,100264.34
2022-11-08T16:03:47.769Z,100254.53
2022-11-08T16:06:45.133Z,100263.91
2022-11-08T16:09:42.634Z,100262.69
2022-11-08T16:12:40.750Z,100279.81
2022-11-08T16:15:38.171Z,100271.66
2022-11-08T16:18:35.613Z,100269.97
2022-11-08T16:21:33.080Z,100258.56
2022-11-08T16:24:30.090Z,100269.19
2022-11-08T16:27:26.999Z,100271.56
2022-11-08T16:30:24.190Z,100265.47
2022-11-08T16:33:25.637Z,100269.13
2022-11-08T16:36:27.883Z,100268.72
2022-11-08T16:39:27.031Z,100267.94
2022-11-08T16:42:23.954Z,100274.91
2022-11-08T16:45:37.228Z,100269.53
2022-11-08T16:48:38.801Z,100261.84
2022-11-08T16:51:36.360Z,100267.53
2022-11-08T16:54:33.371Z,100274.81
2022-11-08T16:57:34.723Z,100265.47
2022-11-08T17:00:32.101Z,100274.00
2022-11-08T17:03:29.864Z,100270.34
2022-11-08T17:06:27.589Z,100277.72
2022-11-08T17:09:25.465Z,100269.56
2022-11-08T17:12:22.549Z,100268.72
2022-11-08T17:15:21.079Z,100274.00
2022-11-08T17:18:19.831Z,100284.63
2022-11-08T17:21:43.102Z,100282.22
2022-11-08T17:24:34.198Z,100276.47
2022-11-08T17:27:31.275Z,100276.50
2022-11-08T17:30:28.273Z,100294.03
2022-11-08T17:33:25.243Z,100292.78
2022-11-08T17:36:22.704Z,100291.56
2022-11-08T17:39:20.184Z,100283.78
2022-11-08T17:42:17.174Z,100282.53
2022-11-08T17:45:14.102Z,100301.69
2022-11-08T17:48:11.405Z,100301.69
2022-11-08T17:51:08.791Z,100296.75
2022-11-08T17:54:06.461Z,100287.81
2022-11-08T17:57:03.633Z,100295.94
2022-11-08T18:00:02.181Z,100305.31
2022-11-08T18:03:12.974Z,100294.31
2022-11-08T18:06:11.595Z,100295.41
2022-11-08T18:09:09.395Z,100285.28
2022-11-08T18:12:06.226Z,100299.94
2022-11-08T18:15:04.508Z,100298.28
2022-11-08T18:18:01.268Z,100294.16
2022-11-08T18:20:58.348Z,100299.03
2022-11-08T18:23:55.528Z,100301.38
2022-11-08T18:26:52.317Z,100299.69
2022-11-08T18:29:49.183Z,100300.50
2022-11-08T18:32:46.016Z,100302.94
2022-11-08T18:35:43.542Z,100313.63
2022-11-08T18:38:41.907Z,100311.91
2022-11-08T18:41:39.249Z,100316.69
2022-11-08T18:44:36.305Z,100311.91
2022-11-08T18:47:33.439Z,100300.44
2022-11-08T18:50:30.358Z,100313.91
2022-11-08T18:53:27.297Z,100322.50
2022-11-08T18:56:24.557Z,100318.44
2022-11-08T18:59:21.408Z,100320.06
2022-11-08T19:02:18.313Z,100309.03
2022-11-08T19:05:15.299Z,100304.00
2022-11-08T19:08:12.230Z,100323.56
2022-11-08T19:11:11.525Z,100319.50
2022-11-08T19:14:08.500Z,100311.31
2022-11-08T19:17:05.490Z,100319.91
2022-11-08T19:20:02.709Z,100311.72
2022-11-08T19:23:00.266Z,100299.91
2022-11-08T19:26:08.386Z,100319.06
2022-11-08T19:29:05.513Z,100307.59
2022-11-08T19:32:02.572Z,100313.31
2022-11-08T19:34:59.543Z,100310.81
2022-11-08T19:37:56.737Z,100318.16
2022-11-08T19:40:54.497Z,100311.88
2022-11-08T19:43:51.964Z,100318.00
2022-11-08T19:46:49.591Z,100320.06
2022-11-08T19:49:46.311Z,100312.31
2022-11-08T19:52:43.264Z,100326.19
2022-11-08T19:55:40.237Z,100336.75
2022-11-08T19:58:38.165Z,100321.69
2022-11-08T20:01:40.089Z,100337.53
2022-11-08T20:04:37.374Z,100339.22
2022-11-08T20:07:34.215Z,100346.88
2022-11-08T20:10:31.202Z,100350.19
2022-11-08T20:13:28.337Z,100343.78
2022-11-08T20:16:27.521Z,100336.88
2022-11-08T20:19:24.627Z,100331.53
2022-11-08T20:22:21.713Z,100344.19
2022-11-08T20:25:18.513Z,100343.34
2022-11-08T20:28:15.783Z,100343.38
2022-11-08T20:31:17.132Z,100347.03
2022-11-08T20:34:18.740Z,100344.94
2022-11-08T20:37:16.506Z,100348.22
2022-11-08T20:40:14.352Z,100344.06
2022-11-08T20:43:11.098Z,100350.13
2022-11-08T20:46:10.531Z,100359.09
2022-11-08T20:49:07.342Z,100366.94
2022-11-08T20:52:04.147Z,100361.28
2022-11-08T20:55:01.667Z,100357.16
2022-11-08T20:57:58.216Z,100356.31
2022-11-08T21:00:58.911Z,100356.28
2022-11-08T21:03:56.400Z,100365.81
2022-11-08T21:07:33.393Z,100365.78
2022-11-08T21:10:41.023Z,100367.78
2022-11-08T21:13:33.206Z,100366.59
2022-11-08T21:16:35.030Z,100358.44
2022-11-08T21:19:32.807Z,100358.78
2022-11-08T21:22:30.526Z,100365.75
2022-11-08T21:25:27.463Z,100366.16
2022-11-08T21:28:25.352Z,100362.50
2022-11-08T21:31:22.875Z,100366.09
2022-11-08T21:34:20.372Z,100359.66
2022-11-08T21:37:17.579Z,100364.94
2022-11-08T21:40:14.709Z,100373.06
2022-11-08T21:43:11.875Z,100375.19
2022-11-08T21:46:25.374Z,100379.34
2022-11-08T21:49:22.715Z,100387.06
2022-11-08T21:52:19.447Z,100381.84
2022-11-08T21:55:16.404Z,100376.84
2022-11-08T21:58:13.458Z,100373.75
2022-11-08T22:01:10.769Z,100378.84
2022-11-08T22:04:08.624Z,100366.28
2022-11-08T22:07:05.611Z,100359.81
2022-11-08T22:10:02.493Z,100365.25
2022-11-08T22:12:59.449Z,100368.38
2022-11-08T22:15:56.259Z,100365.13
2022-11-08T22:19:09.604Z,100372.44
2022-11-08T22:22:07.391Z,100376.91
2022-11-08T22:25:05.532Z,100382.72
2022-11-08T22:28:02.558Z,100374.66
2022-11-08T22:30:59.360Z,100369.41
2022-11-08T22:33:56.762Z,100379.69
2022-11-08T22:36:53.430Z,100373.94
2022-11-08T22:39:50.830Z,100374.88
2022-11-08T22:42:47.585Z,100378.44
2022-11-08T22:45:45.058Z,100391.09
2022-11-08T22:48:42.364Z,100372.38
2022-11-08T22:51:40.091Z,100381.38
2022-11-08T22:54:37.524Z,100386.28
2022-11-08T22:57:34.374Z,100390.38
2022-11-08T23:00:31.744Z,100382.59
2022-11-08T23:03:28.652Z,100383.84
2022-11-08T23:06:25.243Z,100363.41
2022-11-08T23:09:22.892Z,100364.16
2022-11-08T23:12:39.348Z,100368.16
2022-11-08T23:15:55.430Z,100365.75
2022-11-08T23:19:15.621Z,100378.41
2022-11-08T23:22:33.414Z,100371.38
2022-11-08T23:25:30.461Z,100369.44
2022-11-08T23:28:46.552Z,100379.66
2022-11-08T23:31:43.205Z,100380.41
2022-11-08T23:34:40.333Z,100380.03
2022-11-08T23:37:37.438Z,100386.19
2022-11-08T23:40:53.209Z,100373.88
2022-11-08T23:44:09.310Z,100380.81
2022-11-08T23:47:06.264Z,100379.97
2022-11-08T23:50:03.608Z,100384.88
2022-11-08T23:53:00.592Z,100380.31
2022-11-08T23:55:57.446Z,100371.34
2022-11-08T23:58:56.758Z,100368.88
